OINE

Kalaleh Airport

Airport
ICAO code
OINE
IATA Code
KLM
Summary
ICAO Region
MID
ICAO Territory
Location

Barbar Qaleh, Golestan Province

Serving
Kalaleh
Elevation
425 ft
Coordinates
37° 22' 60" N , 55° 27' 5" E
KCC
Metar
Observation
OINE 070300Z 09004KT CAVOK 02/01 Q1026
Station
KALALEH
Date/Time
2022-12-07 03:00:00
Wind direction
90°
Wind speed
04 kts
Lowest cloud amount
clouds and visibility OK
Temperature
2°C
Dew point
1°C
Humidity
93%
QNH
1026 hPa
Weather condition
n/a

Airport 4km west of the city of Kalaleh, Iran.

Climatology

Cold desert climate (Köppen climate classification Bwk).

Runways

Designator Length Width Surface Rops
10/28 2218 28 ASP No/No

Airport map

Aerial View

SKYbrary Partners:

Safety knowledge contributed by: